createdAt,value
2023-09-24T00:00:53.240Z,13.73
2023-09-24T00:03:54.771Z,13.71
2023-09-24T00:06:40.247Z,13.69
2023-09-24T00:09:16.693Z,13.69
2023-09-24T00:11:53.576Z,13.69
2023-09-24T00:14:30.416Z,13.69
2023-09-24T00:17:06.527Z,13.70
2023-09-24T00:19:42.968Z,13.69
2023-09-24T00:22:24.911Z,13.69
2023-09-24T00:25:07.947Z,13.67
2023-09-24T00:27:44.474Z,13.67
2023-09-24T00:30:28.073Z,13.65
2023-09-24T00:33:07.734Z,13.63
2023-09-24T00:35:45.304Z,13.61
2023-09-24T00:38:24.694Z,13.60
2023-09-24T00:41:04.045Z,13.57
2023-09-24T00:43:47.619Z,13.56
2023-09-24T00:46:28.304Z,13.54
2023-09-24T00:49:06.859Z,13.52
2023-09-24T00:51:44.000Z,13.51
2023-09-24T00:54:22.913Z,13.51
2023-09-24T00:57:00.132Z,13.50
2023-09-24T00:59:37.496Z,13.49
2023-09-24T01:02:21.609Z,13.47
2023-09-24T01:04:59.571Z,13.47
2023-09-24T01:07:38.265Z,13.46
2023-09-24T01:10:18.517Z,13.44
2023-09-24T01:13:07.316Z,13.42
2023-09-24T01:15:42.597Z,13.39
2023-09-24T01:18:25.551Z,13.36
2023-09-24T01:21:02.886Z,13.35
2023-09-24T01:23:47.930Z,13.34
2023-09-24T01:26:28.904Z,13.32
2023-09-24T01:29:05.200Z,13.30
2023-09-24T01:31:44.511Z,13.29
2023-09-24T01:34:20.812Z,13.28
2023-09-24T01:37:00.122Z,13.26
2023-09-24T01:39:38.010Z,13.24
2023-09-24T01:42:15.159Z,13.23
2023-09-24T01:44:53.730Z,13.20
2023-09-24T01:47:31.693Z,13.19
2023-09-24T01:50:10.296Z,13.17
2023-09-24T01:52:49.301Z,13.15
2023-09-24T01:55:24.561Z,13.12
2023-09-24T01:58:01.885Z,13.10
2023-09-24T02:00:38.789Z,13.08
2023-09-24T02:03:17.262Z,13.05
2023-09-24T02:05:52.130Z,13.02
2023-09-24T02:08:27.279Z,13.00
2023-09-24T02:11:02.684Z,12.98
2023-09-24T02:13:40.024Z,12.96
2023-09-24T02:16:16.241Z,12.93
2023-09-24T02:18:51.399Z,12.91
2023-09-24T02:21:26.563Z,12.88
2023-09-24T02:24:05.102Z,12.85
2023-09-24T02:26:39.469Z,12.82
2023-09-24T02:29:17.640Z,12.80
2023-09-24T02:31:55.812Z,12.76
2023-09-24T02:34:33.591Z,12.74
2023-09-24T02:37:11.116Z,12.71
2023-09-24T02:39:47.217Z,12.69
2023-09-24T02:42:27.403Z,12.67
2023-09-24T02:45:01.527Z,12.64
2023-09-24T02:47:39.337Z,12.62
2023-09-24T02:50:15.805Z,12.60
2023-09-24T02:52:52.116Z,12.58
2023-09-24T02:55:28.640Z,12.55
2023-09-24T02:58:08.964Z,12.53
2023-09-24T03:00:44.817Z,12.51
2023-09-24T03:03:19.305Z,12.49
2023-09-24T03:05:57.418Z,12.46
2023-09-24T03:08:34.777Z,12.43
2023-09-24T03:11:18.736Z,12.40
2023-09-24T03:13:59.651Z,12.36
2023-09-24T03:16:34.733Z,12.34
2023-09-24T03:19:10.914Z,12.32
2023-09-24T03:21:45.736Z,12.29
2023-09-24T03:24:23.305Z,12.27
2023-09-24T03:26:56.947Z,12.24
2023-09-24T03:29:31.844Z,12.23
2023-09-24T03:32:08.711Z,12.21
2023-09-24T03:34:47.103Z,12.17
2023-09-24T03:37:25.275Z,12.14
2023-09-24T03:40:00.398Z,12.12
2023-09-24T03:42:41.456Z,12.11
2023-09-24T03:45:26.838Z,12.08
2023-09-24T03:48:05.537Z,12.04
2023-09-24T03:50:44.124Z,12.02
2023-09-24T03:53:26.366Z,11.99
2023-09-24T03:56:03.322Z,11.96
2023-09-24T03:58:39.492Z,11.94
2023-09-24T04:01:21.107Z,11.92
2023-09-24T04:03:56.271Z,11.90
2023-09-24T04:06:34.193Z,11.88
2023-09-24T04:09:11.689Z,11.85
2023-09-24T04:11:52.459Z,11.82
2023-09-24T04:14:32.098Z,11.79
2023-09-24T04:17:07.519Z,11.76
2023-09-24T04:19:47.198Z,11.74
2023-09-24T04:22:24.100Z,11.71
2023-09-24T04:25:00.778Z,11.68
2023-09-24T04:27:45.591Z,11.65
2023-09-24T04:30:24.110Z,11.63
2023-09-24T04:33:03.851Z,11.60
2023-09-24T04:35:38.359Z,11.57
2023-09-24T04:38:15.398Z,11.55
2023-09-24T04:40:53.009Z,11.52
2023-09-24T04:43:29.025Z,11.50
2023-09-24T04:46:08.434Z,11.47
2023-09-24T04:48:44.691Z,11.45
2023-09-24T04:51:24.528Z,11.42
2023-09-24T04:54:02.311Z,11.40
2023-09-24T04:56:41.027Z,11.38
2023-09-24T04:59:18.305Z,11.36
2023-09-24T05:01:52.893Z,11.35
2023-09-24T05:04:36.627Z,11.34
2023-09-24T05:07:12.617Z,11.33
2023-09-24T05:09:51.389Z,11.32
2023-09-24T05:12:26.062Z,11.33
2023-09-24T05:15:02.169Z,11.34
2023-09-24T05:17:41.426Z,11.36
2023-09-24T05:20:20.654Z,11.37
2023-09-24T05:23:03.892Z,11.38
2023-09-24T05:25:42.413Z,11.38
2023-09-24T05:28:17.569Z,11.40
2023-09-24T05:30:59.527Z,11.42
2023-09-24T05:33:37.064Z,11.43
2023-09-24T05:36:15.823Z,11.44
2023-09-24T05:38:54.196Z,11.47
2023-09-24T05:41:29.233Z,11.49
2023-09-24T05:44:11.487Z,11.52
2023-09-24T05:46:57.045Z,11.54
2023-09-24T05:49:40.069Z,11.56
2023-09-24T05:52:18.858Z,11.59
2023-09-24T05:54:58.595Z,11.63
2023-09-24T05:57:38.268Z,11.68
2023-09-24T06:00:19.703Z,11.73
2023-09-24T06:02:53.800Z,11.78
2023-09-24T06:05:30.977Z,11.85
2023-09-24T06:08:06.519Z,11.93
2023-09-24T06:10:51.223Z,12.00
2023-09-24T06:13:31.841Z,12.05
2023-09-24T06:16:08.956Z,12.11
2023-09-24T06:18:46.857Z,12.15
2023-09-24T06:21:32.916Z,12.21
2023-09-24T06:24:21.715Z,12.26
2023-09-24T06:26:57.052Z,12.32
2023-09-24T06:29:37.762Z,12.38
2023-09-24T06:32:22.613Z,12.44
2023-09-24T06:34:58.889Z,12.51
2023-09-24T06:37:46.330Z,12.58
2023-09-24T06:40:28.227Z,12.65
2023-09-24T06:43:06.442Z,12.71
2023-09-24T06:45:42.389Z,12.77
2023-09-24T06:48:21.738Z,12.83
2023-09-24T06:50:57.622Z,12.92
2023-09-24T06:53:32.362Z,12.96
2023-09-24T06:56:10.921Z,13.03
2023-09-24T06:58:52.426Z,13.10
2023-09-24T07:01:31.229Z,13.17
2023-09-24T07:04:12.565Z,13.25
2023-09-24T07:06:53.642Z,13.31
2023-09-24T07:09:30.863Z,13.34
2023-09-24T07:12:12.888Z,13.40
2023-09-24T07:15:01.824Z,13.46
2023-09-24T07:17:37.719Z,13.51
2023-09-24T07:20:18.552Z,13.56
2023-09-24T07:22:54.963Z,13.66
2023-09-24T07:25:32.271Z,13.75
2023-09-24T07:28:10.526Z,13.80
2023-09-24T07:30:53.958Z,13.87
2023-09-24T07:33:29.935Z,13.96
2023-09-24T07:36:08.309Z,14.06
2023-09-24T07:38:59.023Z,14.18
2023-09-24T07:41:35.600Z,14.27
2023-09-24T07:44:12.426Z,14.35
2023-09-24T07:46:50.077Z,14.42
2023-09-24T07:49:29.954Z,14.46
2023-09-24T07:52:08.336Z,14.52
2023-09-24T07:54:48.797Z,14.64
2023-09-24T07:57:24.783Z,14.72
2023-09-24T08:00:05.542Z,14.80
2023-09-24T08:02:48.340Z,14.87
2023-09-24T08:05:40.212Z,14.95
2023-09-24T08:08:18.254Z,15.02
2023-09-24T08:10:56.505Z,15.11
2023-09-24T08:13:32.478Z,15.19
2023-09-24T08:16:08.917Z,15.27
2023-09-24T08:18:45.740Z,15.39
2023-09-24T08:21:23.821Z,15.51
2023-09-24T08:24:00.746Z,15.60
2023-09-24T08:26:38.288Z,15.64
2023-09-24T08:29:19.311Z,15.69
2023-09-24T08:31:54.600Z,15.79
2023-09-24T08:34:30.768Z,15.86
2023-09-24T08:37:05.292Z,15.94
2023-09-24T08:39:40.312Z,16.03
2023-09-24T08:42:22.213Z,16.12
2023-09-24T08:45:07.904Z,16.23
2023-09-24T08:47:46.567Z,16.25
2023-09-24T08:50:21.269Z,16.33
2023-09-24T08:52:59.150Z,16.41
2023-09-24T08:55:36.328Z,16.46
2023-09-24T08:58:09.728Z,16.51
2023-09-24T09:00:46.936Z,16.54
2023-09-24T09:03:23.869Z,16.57
2023-09-24T09:05:57.601Z,16.65
2023-09-24T09:08:31.964Z,16.70
2023-09-24T09:11:09.185Z,16.76
2023-09-24T09:13:47.846Z,16.80
2023-09-24T09:16:24.174Z,16.84
2023-09-24T09:19:04.697Z,16.89
2023-09-24T09:21:42.472Z,16.90
2023-09-24T09:24:25.380Z,16.93
2023-09-24T09:27:00.933Z,16.97
2023-09-24T09:29:35.456Z,17.05
2023-09-24T09:32:13.925Z,17.09
2023-09-24T09:34:58.027Z,17.16
2023-09-24T09:37:32.600Z,17.19
2023-09-24T09:40:24.756Z,17.27
2023-09-24T09:43:01.561Z,17.33
2023-09-24T09:45:37.413Z,17.40
2023-09-24T09:48:16.904Z,17.47
2023-09-24T09:50:54.188Z,17.52
2023-09-24T09:53:36.458Z,17.59
2023-09-24T09:56:13.439Z,17.67
2023-09-24T09:58:55.088Z,17.70
2023-09-24T10:01:32.072Z,17.72
2023-09-24T10:04:11.914Z,17.75
2023-09-24T10:06:48.313Z,17.80
2023-09-24T10:09:42.488Z,17.83
2023-09-24T10:12:36.546Z,17.90
2023-09-24T10:15:31.867Z,17.93
2023-09-24T10:18:28.283Z,17.98
2023-09-24T10:21:12.064Z,18.04
2023-09-24T10:23:48.517Z,18.11
2023-09-24T10:26:53.260Z,18.20
2023-09-24T10:30:15.489Z,18.27
2023-09-24T10:32:56.888Z,18.33
2023-09-24T10:35:33.998Z,18.40
2023-09-24T10:38:10.387Z,18.48
2023-09-24T10:41:15.884Z,18.56
2023-09-24T10:44:29.045Z,18.64
2023-09-24T10:47:29.264Z,18.72
2023-09-24T10:50:08.467Z,18.79
2023-09-24T10:52:54.888Z,18.83
2023-09-24T10:55:41.400Z,18.87
2023-09-24T10:58:21.807Z,18.89
2023-09-24T11:01:03.531Z,18.86
2023-09-24T11:03:48.827Z,18.84
2023-09-24T11:06:35.324Z,18.90
2023-09-24T11:09:21.989Z,18.91
2023-09-24T11:11:57.890Z,18.90
2023-09-24T11:14:33.565Z,18.90
2023-09-24T11:17:28.066Z,18.88
2023-09-24T11:20:10.324Z,18.88
2023-09-24T11:22:47.133Z,18.97
2023-09-24T11:25:23.235Z,19.03
2023-09-24T11:27:58.113Z,19.11
2023-09-24T11:30:46.365Z,19.13
2023-09-24T11:33:24.398Z,19.14
2023-09-24T11:36:01.960Z,19.20
2023-09-24T11:38:41.844Z,19.29
2023-09-24T11:41:21.139Z,19.36
2023-09-24T11:44:06.286Z,19.40
2023-09-24T11:46:41.855Z,19.41
2023-09-24T11:49:18.500Z,19.45
2023-09-24T11:51:58.599Z,19.46
2023-09-24T11:54:37.651Z,19.40
2023-09-24T11:57:16.611Z,19.41
2023-09-24T11:59:52.032Z,19.42
2023-09-24T12:02:26.739Z,19.41
2023-09-24T12:05:03.497Z,19.45
2023-09-24T12:07:37.470Z,19.49
2023-09-24T12:10:18.530Z,19.53
2023-09-24T12:12:52.938Z,19.56
2023-09-24T12:15:28.124Z,19.60
2023-09-24T12:18:20.206Z,19.66
2023-09-24T12:20:58.605Z,19.71
2023-09-24T12:23:34.516Z,19.76
2023-09-24T12:26:10.776Z,19.82
2023-09-24T12:28:47.618Z,19.87
2023-09-24T12:31:32.322Z,19.85
2023-09-24T12:34:08.130Z,19.82
2023-09-24T12:36:44.983Z,19.80
2023-09-24T12:39:22.446Z,19.77
2023-09-24T12:41:55.846Z,19.75
2023-09-24T12:44:30.150Z,19.73
2023-09-24T12:47:07.106Z,19.74
2023-09-24T12:49:41.930Z,19.75
2023-09-24T12:52:16.759Z,19.78
2023-09-24T12:54:52.068Z,19.81
2023-09-24T12:57:27.798Z,19.83
2023-09-24T13:00:08.018Z,19.86
2023-09-24T13:02:44.433Z,19.90
2023-09-24T13:05:23.475Z,19.92
2023-09-24T13:07:59.260Z,19.92
2023-09-24T13:10:33.945Z,19.94
2023-09-24T13:13:09.994Z,19.96
2023-09-24T13:15:45.772Z,19.94
2023-09-24T13:18:21.027Z,19.91
2023-09-24T13:20:56.782Z,19.88
2023-09-24T13:23:33.404Z,19.86
2023-09-24T13:26:11.146Z,19.83
2023-09-24T13:28:44.894Z,19.78
2023-09-24T13:31:19.176Z,19.78
2023-09-24T13:33:54.404Z,19.76
2023-09-24T13:36:32.309Z,19.78
2023-09-24T13:39:07.501Z,19.76
2023-09-24T13:41:46.382Z,19.77
2023-09-24T13:44:25.196Z,19.74
2023-09-24T13:47:01.471Z,19.73
2023-09-24T13:49:41.394Z,19.74
2023-09-24T13:52:19.571Z,19.76
2023-09-24T13:54:55.658Z,19.75
2023-09-24T13:57:30.518Z,19.74
2023-09-24T14:00:14.211Z,19.74
2023-09-24T14:02:53.439Z,19.77
2023-09-24T14:05:29.285Z,19.81
2023-09-24T14:08:17.902Z,19.85
2023-09-24T14:11:10.836Z,19.86
2023-09-24T14:13:48.597Z,19.83
2023-09-24T14:16:26.910Z,19.81
2023-09-24T14:19:05.729Z,19.76
2023-09-24T14:21:47.976Z,19.74
2023-09-24T14:24:23.380Z,19.72
2023-09-24T14:26:58.812Z,19.68
2023-09-24T14:29:34.796Z,19.66
2023-09-24T14:32:11.218Z,19.64
2023-09-24T14:34:51.181Z,19.61
2023-09-24T14:37:30.929Z,19.60
2023-09-24T14:40:14.875Z,19.61
2023-09-24T14:42:48.967Z,19.60
2023-09-24T14:45:33.907Z,19.58
2023-09-24T14:48:10.051Z,19.55
2023-09-24T14:50:46.109Z,19.55
2023-09-24T14:53:21.707Z,19.53
2023-09-24T14:56:04.644Z,19.53
2023-09-24T14:58:41.464Z,19.52
2023-09-24T15:01:18.346Z,19.48
2023-09-24T15:03:54.992Z,19.44
2023-09-24T15:06:29.552Z,19.45
2023-09-24T15:09:04.750Z,19.45
2023-09-24T15:11:43.077Z,19.43
2023-09-24T15:14:19.674Z,19.42
2023-09-24T15:16:57.985Z,19.41
2023-09-24T15:19:36.326Z,19.41
2023-09-24T15:22:11.862Z,19.39
2023-09-24T15:24:47.175Z,19.38
2023-09-24T15:27:22.165Z,19.34
2023-09-24T15:29:59.651Z,19.31
2023-09-24T15:32:37.879Z,19.29
2023-09-24T15:35:15.093Z,19.25
2023-09-24T15:37:55.585Z,19.22
2023-09-24T15:40:32.821Z,19.20
2023-09-24T15:43:10.617Z,19.17
2023-09-24T15:45:50.481Z,19.15
2023-09-24T15:48:26.176Z,19.13
2023-09-24T15:51:01.293Z,19.11
2023-09-24T15:53:36.442Z,19.10
2023-09-24T15:56:15.045Z,19.08
2023-09-24T15:58:52.608Z,19.03
2023-09-24T16:01:29.039Z,19.01
2023-09-24T16:04:05.208Z,18.99
2023-09-24T16:06:44.737Z,18.98
2023-09-24T16:09:21.723Z,18.97
2023-09-24T16:11:58.994Z,18.96
2023-09-24T16:14:34.340Z,18.94
2023-09-24T16:17:09.910Z,18.91
2023-09-24T16:19:52.496Z,18.87
2023-09-24T16:22:28.167Z,18.82
2023-09-24T16:25:07.145Z,18.76
2023-09-24T16:27:42.204Z,18.71
2023-09-24T16:30:19.588Z,18.65
2023-09-24T16:33:01.748Z,18.61
2023-09-24T16:35:41.127Z,18.56
2023-09-24T16:38:18.054Z,18.53
2023-09-24T16:41:03.431Z,18.51
2023-09-24T16:43:42.967Z,18.43
2023-09-24T16:46:19.071Z,18.34
2023-09-24T16:48:53.316Z,18.29
2023-09-24T16:51:28.401Z,18.25
2023-09-24T16:54:09.266Z,18.19
2023-09-24T16:56:44.845Z,18.13
2023-09-24T16:59:24.490Z,18.09
2023-09-24T17:02:04.209Z,18.02
2023-09-24T17:04:40.627Z,17.94
2023-09-24T17:07:17.285Z,17.87
2023-09-24T17:09:50.870Z,17.81
2023-09-24T17:12:28.164Z,17.77
2023-09-24T17:15:02.370Z,17.71
2023-09-24T17:17:38.956Z,17.65
2023-09-24T17:20:18.253Z,17.59
2023-09-24T17:22:55.830Z,17.53
2023-09-24T17:25:30.140Z,17.47
2023-09-24T17:28:05.364Z,17.42
2023-09-24T17:30:40.553Z,17.37
2023-09-24T17:33:19.667Z,17.30
2023-09-24T17:35:56.756Z,17.25
2023-09-24T17:38:31.195Z,17.19
2023-09-24T17:41:06.730Z,17.15
2023-09-24T17:43:46.163Z,17.07
2023-09-24T17:46:20.878Z,17.00
2023-09-24T17:48:57.353Z,16.95
2023-09-24T17:51:33.416Z,16.90
2023-09-24T17:54:10.829Z,16.84
2023-09-24T17:56:46.470Z,16.78
2023-09-24T17:59:24.062Z,16.72
2023-09-24T18:02:01.711Z,16.65
2023-09-24T18:04:36.565Z,16.59
2023-09-24T18:07:13.115Z,16.52
2023-09-24T18:09:47.738Z,16.46
2023-09-24T18:12:25.000Z,16.40
2023-09-24T18:14:58.664Z,16.33
2023-09-24T18:17:34.860Z,16.27
2023-09-24T18:20:17.036Z,16.20
2023-09-24T18:22:59.732Z,16.14
2023-09-24T18:25:33.705Z,16.07
2023-09-24T18:28:07.741Z,16.01
2023-09-24T18:30:44.178Z,15.98
2023-09-24T18:33:18.999Z,15.92
2023-09-24T18:35:56.241Z,15.88
2023-09-24T18:38:32.262Z,15.83
2023-09-24T18:41:06.799Z,15.78
2023-09-24T18:43:49.236Z,15.73
2023-09-24T18:46:40.735Z,15.67
2023-09-24T18:49:15.185Z,15.61
2023-09-24T18:51:52.215Z,15.56
2023-09-24T18:54:30.177Z,15.52
2023-09-24T18:57:04.339Z,15.48
2023-09-24T18:59:39.214Z,15.45
2023-09-24T19:02:13.822Z,15.41
2023-09-24T19:04:50.179Z,15.38
2023-09-24T19:07:27.335Z,15.33
2023-09-24T19:10:03.535Z,15.29
2023-09-24T19:12:38.880Z,15.25
2023-09-24T19:15:17.356Z,15.21
2023-09-24T19:17:51.815Z,15.17
2023-09-24T19:20:28.275Z,15.12
2023-09-24T19:23:04.150Z,15.08
2023-09-24T19:25:37.912Z,15.03
2023-09-24T19:28:13.921Z,14.99
2023-09-24T19:30:56.996Z,14.92
2023-09-24T19:33:39.159Z,14.88
2023-09-24T19:36:18.480Z,14.83
2023-09-24T19:38:53.676Z,14.78
2023-09-24T19:41:28.422Z,14.73
2023-09-24T19:44:11.470Z,14.69
2023-09-24T19:46:46.624Z,14.64
2023-09-24T19:49:23.150Z,14.61
2023-09-24T19:52:00.418Z,14.55
2023-09-24T19:54:43.008Z,14.52
2023-09-24T19:57:20.579Z,14.46
2023-09-24T19:59:55.886Z,14.42
2023-09-24T20:02:31.827Z,14.38
2023-09-24T20:05:07.817Z,14.35
2023-09-24T20:07:48.596Z,14.32
2023-09-24T20:10:23.571Z,14.29
2023-09-24T20:12:57.177Z,14.26
2023-09-24T20:15:34.161Z,14.24
2023-09-24T20:18:11.594Z,14.21
2023-09-24T20:20:47.549Z,14.17
2023-09-24T20:23:22.235Z,14.13
2023-09-24T20:25:57.780Z,14.09
2023-09-24T20:28:46.821Z,14.06
2023-09-24T20:31:29.177Z,14.00
2023-09-24T20:34:05.340Z,13.95
2023-09-24T20:36:42.456Z,13.91
2023-09-24T20:39:19.595Z,13.88
2023-09-24T20:41:59.587Z,13.86
2023-09-24T20:44:37.562Z,13.83
2023-09-24T20:47:22.389Z,13.79
2023-09-24T20:50:07.489Z,13.74
2023-09-24T20:52:47.672Z,13.71
2023-09-24T20:55:23.186Z,13.68
2023-09-24T20:57:59.227Z,13.66
2023-09-24T21:00:47.456Z,13.63
2023-09-24T21:03:21.799Z,13.56
2023-09-24T21:06:01.115Z,13.54
2023-09-24T21:08:37.518Z,13.53
2023-09-24T21:11:15.044Z,13.52
2023-09-24T21:13:50.446Z,13.51
2023-09-24T21:16:29.569Z,13.51
2023-09-24T21:19:05.344Z,13.51
2023-09-24T21:21:41.328Z,13.50
2023-09-24T21:24:18.067Z,13.49
2023-09-24T21:26:54.727Z,13.48
2023-09-24T21:29:30.066Z,13.48
2023-09-24T21:32:06.456Z,13.47
2023-09-24T21:34:40.869Z,13.47
2023-09-24T21:37:19.907Z,13.46
2023-09-24T21:39:56.413Z,13.44
2023-09-24T21:42:32.761Z,13.43
2023-09-24T21:45:15.073Z,13.40
2023-09-24T21:47:50.422Z,13.39
2023-09-24T21:50:25.758Z,13.39
2023-09-24T21:53:02.076Z,13.40
2023-09-24T21:55:36.669Z,13.40
2023-09-24T21:58:14.742Z,13.41
2023-09-24T22:00:54.797Z,13.41
2023-09-24T22:03:30.640Z,13.41
2023-09-24T22:06:11.608Z,13.40
2023-09-24T22:08:48.900Z,13.39
2023-09-24T22:11:26.048Z,13.38
2023-09-24T22:14:02.173Z,13.38
2023-09-24T22:16:35.854Z,13.38
2023-09-24T22:19:13.485Z,13.37
2023-09-24T22:21:55.264Z,13.36
2023-09-24T22:24:31.093Z,13.35
2023-09-24T22:27:09.057Z,13.35
2023-09-24T22:29:53.237Z,13.35
2023-09-24T22:32:33.247Z,13.33
2023-09-24T22:35:14.220Z,13.32
2023-09-24T22:37:55.576Z,13.32
2023-09-24T22:40:37.857Z,13.32
2023-09-24T22:43:25.517Z,13.32
2023-09-24T22:46:04.808Z,13.32
2023-09-24T22:48:42.323Z,13.32
2023-09-24T22:51:19.960Z,13.33
2023-09-24T22:53:56.078Z,13.35
2023-09-24T22:56:35.543Z,13.37
2023-09-24T22:59:16.450Z,13.37
2023-09-24T23:01:51.988Z,13.36
2023-09-24T23:04:27.869Z,13.36
2023-09-24T23:07:04.954Z,13.37
2023-09-24T23:09:48.061Z,13.38
2023-09-24T23:12:23.910Z,13.38
2023-09-24T23:14:56.612Z,13.39
2023-09-24T23:17:41.272Z,13.40
2023-09-24T23:20:25.658Z,13.38
2023-09-24T23:23:03.628Z,13.37
2023-09-24T23:25:46.262Z,13.37
2023-09-24T23:28:21.812Z,13.35
2023-09-24T23:30:56.456Z,13.34
2023-09-24T23:33:31.668Z,13.34
2023-09-24T23:36:09.313Z,13.33
2023-09-24T23:38:47.000Z,13.32
2023-09-24T23:41:24.370Z,13.31
2023-09-24T23:44:01.766Z,13.30
2023-09-24T23:46:42.692Z,13.28
2023-09-24T23:49:19.399Z,13.26
2023-09-24T23:51:56.815Z,13.26
2023-09-24T23:54:33.804Z,13.24
2023-09-24T23:57:08.019Z,13.24
2023-09-24T23:59:44.410Z,13.22
